Grand Isle, Maine
Current Conditions -  °F | °C
As of 7:53 PM on Wednesday 26 Nov 2014 (Local Time) from KFVE Reporting Station
Overcast Overcast  
Wind Chill: 17°   Ceiling: 5500
Heat Index: 25°   Visibility: 10mi
Dew Point: 17°   Wind: 7mph
Humidity: 72%   Direction: 360°N
Pressure: 30.11"   Gusts: NA
Location:  47.31°N, 68.15°W
Report Text: KFVE 270053Z AUTO 36006KT 10SM SCT027 SCT045 OVC055 M04/M08 A3011 RMK AO2 PRESFR SLP207 T10391083
Loading
Personal Weather Stations






























Interactive Weather Map New forecast layout! Learn more

10-Day Weather Forecast

Advertisements
Track Severe Weather on mobile